Time;durP1;ratioP1;P1;durP2;ratioP2;P2;SDS_P1;SDS_P2;PMS_P1;PMS_P2;Temp;Humidity;BMP_temperature;BMP_pressure;BME280_temperature;BME280_humidity;BME280_pressure;Samples;Min_cycle;Max_cycle;Signal;HPM_P1;HPM_P2
2022/01/12 00:02:21;;;;;;;0.10;0.10;;;;;;;7.17;67.79;103646.69;5046537;28;20033;-86
2022/01/12 00:04:47;;;;;;;0.15;0.15;;;;;;;7.22;67.60;103658.31;5049928;28;20028;-89
2022/01/12 00:07:13;;;;;;;0.10;0.10;;;;;;;7.19;68.42;103655.53;5047306;28;20549;-86
2022/01/12 00:09:40;;;;;;;0.10;0.10;;;;;;;7.22;68.11;103660.94;5047576;28;20061;-86
2022/01/12 00:12:06;;;;;;;0.90;0.90;;;;;;;7.24;68.22;103669.78;5049378;28;20033;-86
2022/01/12 00:14:33;;;;;;;0.10;0.10;;;;;;;7.27;68.24;103669.94;5048547;28;20068;-87
2022/01/12 00:16:59;;;;;;;0.10;0.10;;;;;;;7.28;67.87;103672.63;5049747;28;20029;-87
2022/01/12 00:19:28;;;;;;;0.20;0.20;;;;;;;7.26;68.29;103668.13;5048924;28;20487;-88
2022/01/12 00:21:56;;;;;;;0.50;0.50;;;;;;;7.30;67.89;103675.31;5050336;28;20063;-87
2022/01/12 00:24:26;;;;;;;0.40;0.40;;;;;;;7.26;68.46;103668.13;5047166;28;20036;-86
2022/01/12 00:35:12;;;;;;;0.17;0.17;;;;;;;7.28;68.98;103645.38;5051029;28;20475;-87
2022/01/12 00:37:39;;;;;;;0.20;0.20;;;;;;;7.29;68.78;103641.88;5050601;28;20052;-88
2022/01/12 00:40:05;;;;;;;1.45;1.38;;;;;;;7.33;68.37;103642.88;5049221;28;20029;-87
2022/01/12 00:42:32;;;;;;;0.10;0.10;;;;;;;7.35;68.70;103636.84;5048904;28;20060;-88
2022/01/12 00:45:01;;;;;;;0.30;0.30;;;;;;;7.34;68.34;103645.59;5050708;28;20041;-88
2022/01/12 00:47:28;;;;;;;0.10;0.10;;;;;;;7.37;68.21;103656.25;5048128;28;20391;-87
2022/01/12 00:49:54;;;;;;;0.25;0.25;;;;;;;7.32;68.27;103652.53;5050579;28;20529;-87
2022/01/12 00:52:20;;;;;;;0.20;0.20;;;;;;;7.35;68.26;103655.31;5052533;28;20033;-89
2022/01/12 00:54:46;;;;;;;0.10;0.10;;;;;;;7.36;68.02;103659.72;5050971;28;20029;-89
2022/01/12 00:57:12;;;;;;;0.20;0.20;;;;;;;7.34;68.05;103656.16;5047405;28;20468;-89
2022/01/12 00:59:39;;;;;;;0.13;0.13;;;;;;;7.32;68.17;103662.22;5035505;28;20030;-88
2022/01/12 01:02:05;;;;;;;0.10;0.10;;;;;;;7.32;68.24;103657.81;5036270;28;20490;-89
2022/01/12 01:04:31;;;;;;;0.10;0.10;;;;;;;7.32;68.52;103667.47;5039513;28;20116;-89
2022/01/12 01:06:57;;;;;;;0.32;0.32;;;;;;;7.27;68.75;103660.28;5033107;28;20076;-89
2022/01/12 01:09:24;;;;;;;0.70;0.70;;;;;;;7.25;68.11;103656.69;5031073;28;20026;-89
2022/01/12 01:11:50;;;;;;;0.65;0.65;;;;;;;7.18;68.48;103648.47;5036577;28;20029;-89
2022/01/12 01:14:26;;;;;;;2.15;2.05;;;;;;;7.22;68.61;103645.13;5037039;28;20029;-89
2022/01/12 01:25:30;;;;;;;1.55;1.45;;;;;;;7.21;68.73;103635.41;5035835;28;20128;-88
2022/01/12 01:25:43;;;;;;;0.10;0.10;;;;;;;7.09;68.60;103644.63;5033829;28;20047;-88
2022/01/12 01:28:00;;;;;;;0.10;0.10;;;;;;;7.13;68.41;103643.91;5034694;28;20037;-88
2022/01/12 01:30:26;;;;;;;1.90;1.10;;;;;;;7.16;68.66;103631.69;5033523;28;20139;-89
2022/01/12 01:32:54;;;;;;;0.32;0.32;;;;;;;7.06;68.85;103628.69;5037916;28;20105;-89
2022/01/12 01:35:20;;;;;;;0.10;0.10;;;;;;;7.11;69.00;103624.47;5035433;28;20030;-89
2022/01/12 01:37:46;;;;;;;0.55;0.55;;;;;;;7.07;69.04;103640.16;5037096;28;20768;-89
2022/01/12 01:40:13;;;;;;;4.35;2.15;;;;;;;7.07;68.46;103637.50;5037958;28;20025;-89
2022/01/12 01:43:06;;;;;;;0.10;0.10;;;;;;;7.07;68.83;103646.31;5044022;28;20036;-89
2022/01/12 01:53:51;;;;;;;1.00;0.90;;;;;;;7.01;68.74;103684.72;5036787;28;20037;-89
2022/01/12 01:56:19;;;;;;;0.20;0.20;;;;;;;7.03;69.19;103696.19;5032712;28;20049;-84
2022/01/12 01:58:46;;;;;;;0.73;0.65;;;;;;;7.02;68.76;103689.16;5049515;28;20032;-87
2022/01/12 02:01:12;;;;;;;0.10;0.10;;;;;;;7.07;68.98;103700.78;5054968;28;20036;-88
2022/01/12 02:03:40;;;;;;;0.20;0.20;;;;;;;7.04;68.94;103709.47;5050953;28;20025;-87
2022/01/12 02:06:07;;;;;;;0.38;0.38;;;;;;;7.07;69.12;103704.31;5056331;28;20533;-87
2022/01/12 02:08:35;;;;;;;0.20;0.20;;;;;;;7.11;69.21;103711.50;5052554;28;20056;-86
2022/01/12 02:11:03;;;;;;;0.75;0.75;;;;;;;7.16;68.45;103713.44;5059016;28;20040;-87
2022/01/12 02:13:29;;;;;;;0.10;0.10;;;;;;;7.18;68.55;103724.94;5051332;28;20037;-88
2022/01/12 02:15:58;;;;;;;0.20;0.20;;;;;;;7.19;68.31;103745.19;5049928;28;20029;-87
2022/01/12 02:40:47;;;;;;;0.10;0.10;;;;;;;7.30;68.37;103780.81;5069718;28;20134;-86
2022/01/12 02:43:28;;;;;;;0.35;0.32;;;;;;;7.32;68.24;103784.41;5066397;28;20070;-83
2022/01/12 02:51:34;;;;;;;0.22;0.22;;;;;;;7.41;68.46;103774.25;5062317;28;20079;-87
2022/01/12 02:54:04;;;;;;;4.18;2.85;;;;;;;7.46;68.49;103766.50;5063312;28;20033;-81
2022/01/12 02:56:35;;;;;;;0.10;0.10;;;;;;;7.50;68.22;103759.63;5070043;28;20055;-81
2022/01/12 02:59:10;;;;;;;0.10;0.10;;;;;;;7.54;68.20;103764.16;5065678;28;20121;-86
2022/01/12 03:02:02;;;;;;;0.17;0.17;;;;;;;7.56;68.54;103767.78;5062837;28;20279;-82
2022/01/12 03:04:25;;;;;;;0.10;0.10;;;;;;;7.57;68.25;103764.31;5071021;28;20589;-86
2022/01/12 03:06:52;;;;;;;0.10;0.10;;;;;;;7.57;68.24;103770.47;5058222;28;20026;-82
2022/01/12 03:09:18;;;;;;;0.10;0.10;;;;;;;7.61;68.40;103766.22;5066579;28;20029;-86
2022/01/12 03:11:44;;;;;;;0.20;0.20;;;;;;;7.62;68.36;103762.75;5062929;28;20025;-87
2022/01/12 03:14:11;;;;;;;0.03;0.03;;;;;;;7.65;68.32;103760.25;5062411;28;20044;-81
2022/01/12 03:16:37;;;;;;;0.45;0.43;;;;;;;7.67;68.76;103747.97;5059024;28;20020;-87
2022/01/12 03:19:04;;;;;;;0.10;0.10;;;;;;;7.66;68.94;103743.53;5060826;28;20029;-82
2022/01/12 03:21:33;;;;;;;0.10;0.10;;;;;;;7.70;68.49;103744.56;5058800;28;20037;-81
2022/01/12 03:24:02;;;;;;;0.40;0.40;;;;;;;7.70;68.38;103750.75;5060084;28;20025;-85
2022/01/12 03:26:30;;;;;;;0.10;0.10;;;;;;;7.72;68.06;103754.34;5058904;28;20029;-85
2022/01/12 03:28:57;;;;;;;0.15;0.15;;;;;;;7.74;67.94;103760.59;5064427;28;20021;-83
2022/01/12 03:31:28;;;;;;;0.28;0.28;;;;;;;7.76;68.29;103764.19;5065193;28;20028;-88
2022/01/12 03:36:53;;;;;;;3.63;1.52;;;;;;;7.77;68.21;103773.00;5079087;27;20438;-87
2022/01/12 03:39:19;;;;;;;0.60;0.60;;;;;;;7.76;67.92;103777.41;5038703;28;20535;-87
2022/01/12 03:41:46;;;;;;;0.47;0.28;;;;;;;7.77;67.66;103781.81;5043373;28;20025;-87
2022/01/12 03:44:13;;;;;;;0.25;0.25;;;;;;;7.78;68.03;103783.63;5043259;28;20026;-87
2022/01/12 03:46:44;;;;;;;0.30;0.30;;;;;;;7.80;68.15;103794.25;5037000;28;20038;-88
2022/01/12 03:49:11;;;;;;;0.10;0.10;;;;;;;7.77;67.87;103797.63;5040540;28;20040;-86
2022/01/12 03:51:37;;;;;;;0.82;0.82;;;;;;;7.78;68.10;103801.19;5042967;28;20052;-88
2022/01/12 03:54:04;;;;;;;0.10;0.10;;;;;;;7.80;67.67;103806.53;5041793;28;20060;-87
2022/01/12 03:56:30;;;;;;;0.28;0.25;;;;;;;7.78;68.42;103810.00;5039152;28;20044;-86
2022/01/12 03:58:56;;;;;;;0.17;0.17;;;;;;;7.79;68.40;103810.94;5041823;28;20427;-87
2022/01/12 04:01:23;;;;;;;0.10;0.10;;;;;;;7.80;68.23;103803.91;5044507;28;20029;-89
2022/01/12 04:04:00;;;;;;;0.10;0.10;;;;;;;7.83;68.07;103811.94;5045617;28;20029;-87
2022/01/12 04:09:13;;;;;;;0.10;0.10;;;;;;;7.89;68.27;103804.28;5032255;28;20092;-88
2022/01/12 04:11:39;;;;;;;0.13;0.13;;;;;;;7.90;68.18;103806.97;5033558;28;20436;-87
2022/01/12 04:14:06;;;;;;;0.10;0.10;;;;;;;7.92;67.98;103793.81;5033670;28;20026;-87
2022/01/12 04:16:33;;;;;;;0.40;0.40;;;;;;;7.93;68.37;103791.22;5045774;28;20057;-87
2022/01/12 04:18:59;;;;;;;0.20;0.20;;;;;;;7.97;68.49;103786.97;5045044;28;20040;-87
2022/01/12 04:21:29;;;;;;;0.10;0.10;;;;;;;7.99;68.26;103780.00;5050605;28;20052;-88
2022/01/12 04:23:57;;;;;;;0.25;0.25;;;;;;;8.02;68.41;103785.41;5034778;28;20380;-88
2022/01/12 04:26:24;;;;;;;0.03;0.03;;;;;;;8.02;68.35;103790.69;5043126;28;20526;-86
2022/01/12 04:28:50;;;;;;;0.73;0.73;;;;;;;8.03;67.87;103787.19;5044219;28;20117;-86
2022/01/12 04:31:16;;;;;;;3.15;1.38;;;;;;;8.04;67.93;103799.56;5044632;28;20029;-88
2022/01/12 04:33:44;;;;;;;1.02;1.02;;;;;;;8.05;68.10;103796.09;5049737;28;20041;-84
2022/01/12 04:36:12;;;;;;;0.10;0.10;;;;;;;8.03;68.17;103795.13;5048509;28;20391;-82
2022/01/12 04:38:40;;;;;;;2.95;2.70;;;;;;;8.02;67.99;103806.53;5034409;28;20368;-88
2022/01/12 04:41:09;;;;;;;0.80;0.80;;;;;;;8.03;68.13;103813.59;5048581;28;20032;-87
2022/01/12 04:43:37;;;;;;;0.10;0.10;;;;;;;8.00;68.48;103810.88;5049348;28;20033;-87
2022/01/12 04:51:30;;;;;;;0.10;0.10;;;;;;;7.99;68.31;103793.22;5055144;28;20048;-88
2022/01/12 04:53:56;;;;;;;2.60;0.90;;;;;;;7.96;68.11;103785.16;5059423;28;20064;-79
2022/01/12 04:56:23;;;;;;;0.10;0.10;;;;;;;7.96;68.29;103787.81;5059180;28;20026;-87
2022/01/12 04:58:50;;;;;;;0.32;0.32;;;;;;;7.93;67.72;103780.66;5061519;28;20060;-88
2022/01/12 05:01:23;;;;;;;0.20;0.20;;;;;;;7.91;67.99;103779.72;5060895;28;20376;-87
2022/01/12 05:12:57;;;;;;;0.10;0.10;;;;;;;7.83;67.89;103793.47;5041367;28;20442;-84
2022/01/12 05:15:16;;;;;;;0.10;0.10;;;;;;;7.81;67.89;103795.13;5024446;28;20044;-86
2022/01/12 05:17:42;;;;;;;0.10;0.10;;;;;;;7.80;68.05;103801.25;5012729;28;20073;-87
2022/01/12 05:20:09;;;;;;;1.48;1.38;;;;;;;7.80;68.31;103809.16;5013489;28;20030;-86
2022/01/12 05:22:35;;;;;;;0.10;0.10;;;;;;;7.80;67.75;103819.72;5018802;28;20029;-86
2022/01/12 05:25:01;;;;;;;0.20;0.20;;;;;;;7.80;67.90;103830.28;5018013;28;20046;-85
2022/01/12 05:27:27;;;;;;;1.08;0.93;;;;;;;7.80;67.77;103840.84;5018529;28;20399;-84
2022/01/12 05:29:53;;;;;;;0.10;0.10;;;;;;;7.81;68.09;103843.53;5016575;28;20054;-85
2022/01/12 05:32:20;;;;;;;0.10;0.10;;;;;;;7.81;68.47;103847.94;5019240;28;20057;-84
2022/01/12 05:34:46;;;;;;;0.10;0.10;;;;;;;7.77;68.54;103837.22;5000652;28;20536;-83
2022/01/12 05:37:12;;;;;;;0.10;0.10;;;;;;;7.77;67.95;103842.50;5011106;28;20058;-87
2022/01/12 05:39:39;;;;;;;0.10;0.10;;;;;;;7.78;68.50;103841.69;5014336;28;20037;-86
2022/01/12 05:42:05;;;;;;;0.45;0.45;;;;;;;7.77;68.55;103836.34;5014661;28;20038;-86
2022/01/12 05:44:34;;;;;;;0.10;0.10;;;;;;;7.73;68.16;103837.97;5011043;28;20089;-86
2022/01/12 05:47:01;;;;;;;0.28;0.28;;;;;;;7.75;68.02;103832.72;5017513;28;20030;-89
2022/01/12 05:49:34;;;;;;;0.10;0.10;;;;;;;7.72;68.03;103836.16;5012938;28;20030;-88
2022/01/12 05:52:01;;;;;;;0.20;0.20;;;;;;;7.72;68.14;103843.19;5022480;28;20121;-82
2022/01/12 05:54:27;;;;;;;0.30;0.30;;;;;;;7.71;68.14;103836.09;5026460;28;20042;-87
2022/01/12 05:56:53;;;;;;;0.85;0.85;;;;;;;7.66;68.26;103843.81;5005276;28;20026;-87
2022/01/12 05:59:19;;;;;;;1.45;1.00;;;;;;;7.64;68.43;103848.16;5012530;28;20034;-86
2022/01/12 06:01:45;;;;;;;0.10;0.10;;;;;;;7.60;68.52;103843.56;5019892;28;20109;-86
2022/01/12 06:04:11;;;;;;;0.10;0.10;;;;;;;7.57;68.45;103848.75;5021201;28;20029;-87
2022/01/12 06:06:37;;;;;;;0.43;0.43;;;;;;;7.54;68.22;103853.88;5019474;28;20092;-86
2022/01/12 06:09:04;;;;;;;2.75;1.75;;;;;;;7.50;68.32;103859.88;5019976;28;20023;-82
2022/01/12 06:11:30;;;;;;;0.10;0.10;;;;;;;7.49;67.97;103863.34;5027466;28;20033;-81
2022/01/12 06:13:58;;;;;;;0.30;0.30;;;;;;;7.45;68.12;103867.59;5030913;28;20035;-82
2022/01/12 06:16:25;;;;;;;0.10;0.10;;;;;;;7.39;68.17;103870.88;5032572;28;20051;-81
2022/01/12 06:18:52;;;;;;;0.88;0.82;;;;;;;7.36;68.32;103881.28;5047282;23;20076;-89
2022/01/12 06:21:20;;;;;;;0.10;0.10;;;;;;;7.34;68.04;103884.72;5029945;28;20034;-89
2022/01/12 06:23:46;;;;;;;0.20;0.20;;;;;;;7.32;68.12;103895.19;5016858;28;20066;-89
2022/01/12 06:26:13;;;;;;;0.40;0.40;;;;;;;7.27;68.33;103899.38;5016846;28;20529;-89
2022/01/12 06:28:42;;;;;;;0.13;0.13;;;;;;;7.28;68.14;103902.06;5003915;28;20491;-88
2022/01/12 06:31:10;;;;;;;0.10;0.10;;;;;;;7.27;68.12;103908.19;4996960;28;20088;-90
2022/01/12 06:33:42;;;;;;;0.17;0.17;;;;;;;7.27;68.09;103907.28;4997133;28;20328;-90
2022/01/12 06:36:09;;;;;;;0.10;0.10;;;;;;;7.21;68.27;103912.31;4997342;28;20034;-88
2022/01/12 06:38:36;;;;;;;0.10;0.10;;;;;;;7.18;68.27;103918.34;4996333;28;20030;-89
2022/01/12 06:41:04;;;;;;;0.10;0.10;;;;;;;7.17;67.91;103919.19;4997504;28;20038;-92
2022/01/12 06:43:31;;;;;;;0.13;0.13;;;;;;;7.19;67.87;103924.50;4996898;28;20073;-90
2022/01/12 06:45:58;;;;;;;0.10;0.10;;;;;;;7.19;68.08;103920.16;4996523;28;20034;-90
2022/01/12 06:48:24;;;;;;;0.10;0.10;;;;;;;7.24;68.14;103920.34;4996887;28;20028;-89
2022/01/12 06:50:50;;;;;;;0.22;0.22;;;;;;;7.25;68.34;103923.06;4996778;28;20038;-88
2022/01/12 06:53:16;;;;;;;0.10;0.10;;;;;;;7.25;68.19;103915.16;4997185;28;20031;-89
2022/01/12 06:55:46;;;;;;;0.85;0.85;;;;;;;7.29;68.30;103918.81;4996733;28;20034;-89
2022/01/12 06:58:28;;;;;;;0.10;0.10;;;;;;;7.33;68.36;103912.84;4996184;28;20069;-88
2022/01/12 07:00:54;;;;;;;5.68;1.00;;;;;;;7.28;68.75;103927.56;4996435;28;20035;-88
2022/01/12 07:03:21;;;;;;;3.05;1.30;;;;;;;7.29;68.48;103932.00;4997411;28;20377;-88
2022/01/12 07:05:50;;;;;;;0.73;0.73;;;;;;;7.33;68.38;103941.84;4997405;28;20058;-89
2022/01/12 07:08:16;;;;;;;0.10;0.10;;;;;;;7.31;68.39;103945.25;4996397;28;20031;-89
2022/01/12 07:10:43;;;;;;;0.10;0.10;;;;;;;7.31;68.38;103951.44;4996680;28;20033;-89
2022/01/12 07:13:11;;;;;;;0.10;0.10;;;;;;;7.34;68.31;103948.94;4996503;28;20108;-90
2022/01/12 07:15:39;;;;;;;0.10;0.10;;;;;;;7.34;68.53;103955.94;4996754;28;20149;-93
2022/01/12 07:18:06;;;;;;;0.15;0.15;;;;;;;7.35;68.23;103966.56;4995635;28;20041;-91
2022/01/12 07:20:32;;;;;;;0.20;0.20;;;;;;;7.37;68.56;103966.63;4996829;28;20041;-91
2022/01/12 07:22:58;;;;;;;0.10;0.10;;;;;;;7.37;68.52;103969.25;4995793;28;20500;-88
2022/01/12 07:25:25;;;;;;;0.17;0.17;;;;;;;7.37;68.32;103962.25;4996559;28;20030;-89
2022/01/12 07:27:51;;;;;;;0.10;0.10;;;;;;;7.37;68.24;103971.91;4995180;28;20085;-84
2022/01/12 07:30:22;;;;;;;0.57;0.57;;;;;;;7.35;68.60;103969.22;4995742;28;20470;-84
2022/01/12 07:32:49;;;;;;;0.10;0.10;;;;;;;7.35;67.89;103968.28;4985743;28;20108;-84
2022/01/12 07:35:15;;;;;;;0.10;0.10;;;;;;;7.32;68.39;103973.44;4983886;28;20023;-84
2022/01/12 07:37:41;;;;;;;0.10;0.10;;;;;;;7.30;68.43;103970.72;4986338;28;20034;-84
2022/01/12 07:40:08;;;;;;;0.20;0.20;;;;;;;7.28;68.33;103972.41;4988810;28;20030;-84
2022/01/12 07:42:34;;;;;;;0.30;0.30;;;;;;;7.28;68.27;103977.69;4984523;28;20030;-84
2022/01/12 07:45:01;;;;;;;0.10;0.10;;;;;;;7.28;68.38;103982.94;4987213;28;20054;-82
2022/01/12 07:47:29;;;;;;;0.25;0.25;;;;;;;7.28;68.21;103983.84;4977711;28;20027;-83
2022/01/12 07:49:56;;;;;;;0.13;0.13;;;;;;;7.28;68.18;103993.50;4990279;28;20030;-83
2022/01/12 07:52:26;;;;;;;0.20;0.20;;;;;;;7.26;67.98;103993.44;4995124;28;20031;-82
2022/01/12 07:54:52;;;;;;;0.32;0.32;;;;;;;7.27;67.96;103996.97;4989010;28;20030;-84
2022/01/12 07:57:19;;;;;;;0.10;0.10;;;;;;;7.26;68.27;103989.88;4985326;28;20061;-84
2022/01/12 07:59:45;;;;;;;0.20;0.20;;;;;;;7.25;67.77;103999.53;4975143;28;20049;-85
2022/01/12 08:02:12;;;;;;;0.10;0.10;;;;;;;7.20;67.91;104000.16;4975196;28;20362;-86
2022/01/12 08:04:44;;;;;;;0.13;0.13;;;;;;;7.24;67.73;104002.09;4975535;28;20030;-88
2022/01/12 08:07:11;;;;;;;0.30;0.30;;;;;;;7.17;67.98;104002.69;4975281;28;20053;-90
2022/01/12 08:09:40;;;;;;;0.17;0.17;;;;;;;7.22;68.17;104006.41;4975728;28;20054;-89
2022/01/12 08:12:07;;;;;;;0.20;0.20;;;;;;;7.25;68.59;104014.44;4980279;28;20034;-88
2022/01/12 08:14:33;;;;;;;0.10;0.10;;;;;;;7.25;68.42;104025.00;4994240;28;20149;-91
2022/01/12 08:17:00;;;;;;;0.10;0.10;;;;;;;7.25;67.96;104032.91;4995493;28;20129;-89
2022/01/12 08:19:34;;;;;;;1.48;0.65;;;;;;;7.27;68.34;104023.34;4989392;28;20061;-90
2022/01/12 08:22:00;;;;;;;0.10;0.10;;;;;;;7.27;68.52;104029.50;4982115;28;20080;-86
2022/01/12 08:24:26;;;;;;;0.10;0.10;;;;;;;7.33;68.00;104033.25;4983159;28;20037;-87
2022/01/12 08:26:52;;;;;;;0.10;0.10;;;;;;;7.39;68.11;104033.53;4983177;28;20038;-85
2022/01/12 08:29:18;;;;;;;0.82;0.82;;;;;;;7.40;68.38;104035.34;4991573;28;20385;-90
2022/01/12 08:31:45;;;;;;;0.38;0.38;;;;;;;7.41;68.39;104035.44;4987258;28;20065;-81
2022/01/12 08:34:12;;;;;;;0.10;0.10;;;;;;;7.45;68.23;104036.44;4983952;28;20033;-84
2022/01/12 08:36:40;;;;;;;0.85;0.85;;;;;;;7.47;68.51;104036.53;4986709;28;20373;-84
2022/01/12 08:39:08;;;;;;;0.20;0.20;;;;;;;7.52;68.42;104049.06;4992086;28;20035;-84
2022/01/12 08:41:35;;;;;;;0.10;0.10;;;;;;;7.53;68.36;104052.63;4993776;28;20026;-86
2022/01/12 08:44:02;;;;;;;0.95;0.95;;;;;;;7.56;68.30;104058.97;4993434;28;20034;-87
2022/01/12 08:46:29;;;;;;;0.28;0.28;;;;;;;7.58;67.94;104066.94;4993581;28;20132;-85
2022/01/12 08:48:57;;;;;;;0.85;0.85;;;;;;;7.63;68.58;104061.84;4993642;28;20026;-86
2022/01/12 08:51:23;;;;;;;0.10;0.10;;;;;;;7.63;68.03;104070.66;4981964;28;20046;-87
2022/01/12 08:53:50;;;;;;;0.10;0.10;;;;;;;7.64;68.48;104067.22;4986278;28;20110;-82
2022/01/12 08:56:16;;;;;;;0.10;0.10;;;;;;;7.67;67.89;104067.31;4985348;28;20034;-84
2022/01/12 08:58:43;;;;;;;0.45;0.45;;;;;;;7.71;68.33;104069.28;4989767;28;20029;-81
2022/01/12 09:01:10;;;;;;;0.10;0.10;;;;;;;7.76;68.22;104080.03;4980925;28;20482;-85
2022/01/12 09:03:38;;;;;;;0.10;0.10;;;;;;;7.78;68.32;104092.44;4973160;28;20077;-86
2022/01/12 09:06:05;;;;;;;0.40;0.40;;;;;;;7.84;68.50;104101.47;4990319;28;20023;-85
2022/01/12 09:08:32;;;;;;;0.13;0.13;;;;;;;7.86;68.59;104097.16;4992004;28;20038;-84
2022/01/12 09:10:58;;;;;;;0.10;0.10;;;;;;;7.87;68.53;104101.63;4991700;28;20477;-84
2022/01/12 09:13:24;;;;;;;0.20;0.20;;;;;;;7.92;68.00;104092.16;4992281;28;20137;-82
2022/01/12 09:15:50;;;;;;;0.10;0.10;;;;;;;7.92;67.97;104102.72;4992582;28;20031;-85
2022/01/12 09:18:18;;;;;;;0.10;0.10;;;;;;;7.94;68.37;104103.69;4989780;28;20058;-79
2022/01/12 09:20:45;;;;;;;0.52;0.25;;;;;;;7.94;68.63;104111.63;4992618;28;20027;-79
2022/01/12 09:23:13;;;;;;;0.10;0.10;;;;;;;7.97;68.25;104109.09;4992225;28;20037;-83
2022/01/12 09:25:41;;;;;;;0.43;0.43;;;;;;;7.99;67.91;104111.78;4992338;28;20045;-81
2022/01/12 09:28:09;;;;;;;0.10;0.10;;;;;;;8.03;67.92;104114.66;4992653;28;20062;-82
2022/01/12 09:30:36;;;;;;;0.20;0.20;;;;;;;8.02;68.04;104120.75;4992110;28;20050;-81
2022/01/12 09:33:03;;;;;;;0.10;0.10;;;;;;;8.07;67.82;104132.44;4974191;28;20033;-82
2022/01/12 09:35:30;;;;;;;0.20;0.20;;;;;;;8.14;67.83;104132.69;4991979;28;20121;-80
2022/01/12 09:37:57;;;;;;;1.02;1.02;;;;;;;8.18;68.33;104129.38;4991915;28;20031;-78
2022/01/12 09:40:23;;;;;;;0.15;0.15;;;;;;;8.23;68.27;104131.34;4992636;28;20033;-82
2022/01/12 09:42:50;;;;;;;0.50;0.50;;;;;;;8.28;67.97;104128.91;4991817;28;20066;-82
2022/01/12 09:45:18;;;;;;;0.10;0.10;;;;;;;8.29;67.95;104132.44;4992098;28;20129;-81
2022/01/12 09:47:47;;;;;;;0.38;0.38;;;;;;;8.32;68.12;104133.47;4978880;28;20525;-81
2022/01/12 09:50:18;;;;;;;0.57;0.57;;;;;;;8.33;68.07;104139.69;4991231;28;20536;-79
2022/01/12 09:52:44;;;;;;;0.10;0.10;;;;;;;8.36;68.02;104146.00;4991567;28;20385;-80
2022/01/12 09:55:10;;;;;;;1.13;1.13;;;;;;;8.42;67.96;104148.91;4977840;28;20097;-82
2022/01/12 09:57:36;;;;;;;0.55;0.55;;;;;;;8.47;68.24;104142.94;4980447;28;20045;-81
2022/01/12 10:00:06;;;;;;;0.13;0.13;;;;;;;8.51;68.43;104144.84;4986393;28;20485;-81
2022/01/12 10:02:33;;;;;;;0.10;0.10;;;;;;;8.49;67.74;104141.28;4976358;28;20026;-82
2022/01/12 10:05:02;;;;;;;5.28;1.85;;;;;;;8.49;67.90;104147.44;4976352;28;20185;-81
2022/01/12 10:07:28;;;;;;;0.10;0.10;;;;;;;8.54;67.79;104155.56;4990435;28;20026;-79
2022/01/12 10:10:14;;;;;;;0.10;0.10;;;;;;;8.57;67.64;104153.03;4995897;28;20474;-80
2022/01/12 10:12:56;;;;;;;0.15;0.15;;;;;;;8.63;68.19;104148.00;4961136;28;20045;-80
2022/01/12 10:15:27;;;;;;;0.10;0.10;;;;;;;8.71;67.93;104149.25;4982663;28;20023;-83
2022/01/12 10:17:59;;;;;;;0.10;0.10;;;;;;;8.74;68.06;104152.00;4977763;28;20062;-85
2022/01/12 10:20:25;;;;;;;0.30;0.30;;;;;;;8.81;68.10;104160.19;4995450;28;20037;-84
2022/01/12 10:25:41;;;;;;;0.20;0.20;;;;;;;8.83;67.71;104145.28;5089747;28;20439;-83
2022/01/12 10:28:18;;;;;;;0.10;0.10;;;;;;;8.91;67.05;104141.22;5061829;28;20476;-82
2022/01/12 10:31:03;;;;;;;0.10;0.10;;;;;;;8.90;66.89;104135.00;5049073;28;20109;-81
2022/01/12 10:33:33;;;;;;;0.10;0.10;;;;;;;8.84;67.30;104134.75;5048699;28;20033;-79
2022/01/12 10:36:02;;;;;;;0.10;0.10;;;;;;;8.85;67.06;104130.41;5048357;28;20116;-80
2022/01/12 10:38:29;;;;;;;0.10;0.10;;;;;;;8.83;66.99;104138.25;5047659;28;20039;-81
2022/01/12 10:43:44;;;;;;;0.63;0.63;;;;;;;8.92;67.09;104137.72;5077855;28;20492;-80
2022/01/12 10:46:14;;;;;;;0.10;0.10;;;;;;;8.97;67.28;104135.25;5069430;28;20036;-82
2022/01/12 10:48:44;;;;;;;0.10;0.10;;;;;;;8.97;67.12;104129.97;5073652;22;20434;-81
2022/01/12 10:51:11;;;;;;;0.50;0.47;;;;;;;8.92;67.25;104129.78;5064751;28;20090;-79
2022/01/12 10:53:37;;;;;;;0.93;0.93;;;;;;;8.90;66.56;104140.31;5068616;28;20032;-80
2022/01/12 10:56:11;;;;;;;0.15;0.15;;;;;;;8.89;67.08;104154.34;5068077;28;20425;-80
2022/01/12 10:58:41;;;;;;;0.10;0.10;;;;;;;8.88;66.56;104157.88;5057514;28;20494;-82
2022/01/12 11:01:08;;;;;;;0.10;0.10;;;;;;;8.87;66.67;104163.06;5069321;28;20037;-82
2022/01/12 11:03:34;;;;;;;0.10;0.10;;;;;;;8.89;67.42;104154.34;5069650;28;20493;-79
2022/01/12 11:06:01;;;;;;;0.10;0.10;;;;;;;8.96;67.00;104152.88;5069353;28;20037;-80
2022/01/12 11:08:29;;;;;;;0.25;0.25;;;;;;;9.01;67.72;104153.97;5067977;28;20037;-81
2022/01/12 11:10:58;;;;;;;0.10;0.10;;;;;;;9.05;67.61;104145.28;5068537;28;20485;-80
2022/01/12 11:13:26;;;;;;;0.10;0.10;;;;;;;9.12;67.09;104150.81;5063458;28;20024;-80
2022/01/12 11:15:53;;;;;;;0.10;0.10;;;;;;;9.16;67.50;104142.16;5069338;28;20032;-80
2022/01/12 11:18:25;;;;;;;4.38;1.73;;;;;;;9.07;66.98;104132.13;5067803;28;20499;-82
2022/01/12 11:20:53;;;;;;;10.45;1.63;;;;;;;9.14;66.83;104128.88;5069450;28;20037;-80
2022/01/12 11:23:20;;;;;;;0.13;0.13;;;;;;;9.14;67.15;104128.00;5069288;28;20036;-82
2022/01/12 11:28:39;;;;;;;0.17;0.17;;;;;;;9.20;66.67;104130.88;5048463;27;20443;-80
2022/01/12 11:31:06;;;;;;;0.57;0.57;;;;;;;9.25;66.90;104120.47;5037438;28;20032;-76
2022/01/12 11:36:23;;;;;;;0.10;0.10;;;;;;;9.33;67.24;104119.94;5099361;27;20421;-81
2022/01/12 11:39:08;;;;;;;0.08;0.08;;;;;;;9.29;66.73;104112.69;5088523;28;20399;-80
2022/01/12 11:41:37;;;;;;;0.85;0.50;;;;;;;9.26;67.07;104112.59;5089607;28;20533;-80
2022/01/12 11:44:08;;;;;;;0.13;0.13;;;;;;;9.26;66.40;104107.31;5081874;28;20044;-78
2022/01/12 11:52:26;;;;;;;0.63;0.63;;;;;;;9.37;66.37;104099.75;5077786;28;21002;-84
2022/01/12 11:55:06;;;;;;;0.38;0.38;;;;;;;9.32;67.39;104106.63;5069367;28;20111;-86
2022/01/12 11:57:36;;;;;;;0.10;0.10;;;;;;;9.31;66.88;104102.16;5066556;28;20071;-85
2022/01/12 12:00:21;;;;;;;0.10;0.10;;;;;;;9.38;66.73;104113.06;5062081;28;20037;-80
2022/01/12 12:02:50;;;;;;;1.02;1.02;;;;;;;9.27;66.54;104103.81;5070192;28;20029;-84
2022/01/12 12:05:20;;;;;;;0.50;0.50;;;;;;;9.23;66.82;104104.53;5069468;28;20395;-84
2022/01/12 12:08:02;;;;;;;0.10;0.10;;;;;;;9.27;67.03;104106.47;5069697;28;20059;-84
2022/01/12 12:10:30;;;;;;;0.10;0.10;;;;;;;9.26;67.13;104106.38;5070343;28;20087;-78
2022/01/12 12:12:58;;;;;;;0.68;0.68;;;;;;;9.26;66.76;104107.31;5070298;28;20126;-82
2022/01/12 12:15:26;;;;;;;0.20;0.20;;;;;;;9.28;67.14;104105.59;5069826;28;20471;-79
2022/01/12 12:17:55;;;;;;;0.25;0.25;;;;;;;9.30;66.99;104093.34;5057974;28;20124;-85
2022/01/12 12:20:23;;;;;;;0.30;0.30;;;;;;;9.32;66.92;104102.25;5049892;28;20025;-84
2022/01/12 12:22:51;;;;;;;0.80;0.43;;;;;;;9.29;67.25;104096.81;5054936;28;20105;-87
2022/01/12 12:25:22;;;;;;;0.10;0.10;;;;;;;9.30;67.07;104097.75;5068799;28;20076;-85
2022/01/12 12:27:54;;;;;;;0.98;0.98;;;;;;;9.29;66.66;104088.88;5070166;28;20025;-86
2022/01/12 12:30:22;;;;;;;0.35;0.35;;;;;;;9.24;66.78;104090.44;5063429;28;20024;-86
2022/01/12 12:32:53;;;;;;;0.10;0.10;;;;;;;9.28;67.15;104089.72;5069366;28;20033;-83
2022/01/12 12:35:24;;;;;;;0.20;0.20;;;;;;;9.27;66.78;104082.66;5064306;28;20032;-84
2022/01/12 12:38:00;;;;;;;0.10;0.10;;;;;;;9.33;66.40;104081.97;5057233;28;20391;-86
2022/01/12 12:40:48;;;;;;;0.20;0.20;;;;;;;9.35;66.64;104075.88;5066918;28;20032;-86
2022/01/12 12:43:19;;;;;;;0.10;0.10;;;;;;;9.23;66.88;104080.72;5069487;28;20032;-87
2022/01/12 12:45:54;;;;;;;0.10;0.10;;;;;;;9.22;66.66;104078.91;5069591;28;20028;-86
2022/01/12 12:48:24;;;;;;;0.30;0.30;;;;;;;9.21;66.75;104087.72;5069661;28;20031;-87
2022/01/12 12:51:13;;;;;;;0.10;0.10;;;;;;;9.32;66.81;104083.72;5069117;28;20032;-83
2022/01/12 12:53:42;;;;;;;0.10;0.10;;;;;;;9.19;66.80;104095.56;5065285;28;20037;-84
2022/01/12 12:56:29;;;;;;;0.38;0.38;;;;;;;9.21;66.64;104098.28;5059291;28;20044;-81
2022/01/12 12:58:57;;;;;;;0.20;0.20;;;;;;;9.21;66.80;104095.66;5050747;28;20029;-84
2022/01/12 13:01:26;;;;;;;0.08;0.08;;;;;;;9.23;66.93;104101.88;5046345;28;20083;-81
2022/01/12 13:03:57;;;;;;;0.20;0.20;;;;;;;9.26;66.91;104096.72;5035581;28;20036;-84
2022/01/12 13:06:28;;;;;;;0.10;0.10;;;;;;;9.19;67.21;104106.16;5035794;28;20025;-81
2022/01/12 13:09:03;;;;;;;0.15;0.15;;;;;;;9.22;66.93;104121.22;5035528;28;20037;-80